Latest Weather Observations for Edinburgh

IDS60801

Issued at 12:01 am CDT Saturday 10 December 2016 (issued every 30 minutes, with the page automatically refreshed every 10 minutes)

About weather observations | Map of weather stations | Latest weather observations for SA | Other Formats
Station Details ID: 023083 Name: EDINBURGH RAAF Lat: -34.71 Lon: 138.62 Height: 16.54 m
Data from the previous 72 hours. | See also: Recent months at Edinburgh
Date/Time
CDT
Temp
°C
App
Temp
°C
Dew
Point
°C
Rel
Hum
%
Delta-T
°C
Wind Press
QNH
hPa
Press
MSL
hPa
Rain since
9am
mm
Dir  Spd
km/h
Gust
km/h
Spd
kts
Gust
kts
10/12:00am 12.9 10.4 6.5 65 3.0 SE 9 13 5 7 1023.3 1023.2 -
 
Date/Time
CDT
Temp
°C
App
Temp
°C
Dew
Point
°C
Rel
Hum
%
Delta-T
°C
Wind Press
QNH
hPa
Press
MSL
hPa
Rain since
9am
mm
Dir  Spd
km/h
Gust
km/h
Spd
kts
Gust
kts
09/11:30pm 13.1 10.1 6.2 63 3.3 SE 11 17 6 9 1023.5 1023.4 0.0
09/11:00pm 13.4 10.1 6.3 62 3.4 SE 13 22 7 12 1023.5 1023.4 0.0
09/10:30pm 13.7 10.3 5.8 59 3.7 SE 13 19 7 10 1023.5 1023.4 0.0
09/10:00pm 14.1 10.3 6.0 58 3.9 SE 15 20 8 11 1023.4 1023.3 0.0
09/09:30pm 14.6 10.1 6.2 57 4.0 SSE 19 26 10 14 1023.1 1023.0 0.0
09/09:00pm 15.3 10.7 5.8 53 4.5 SSE 19 28 10 15 1022.9 1022.8 0.0
09/08:30pm 16.4 12.7 6.2 51 4.9 SE 15 20 8 11 1022.6 1022.5 0.0
09/08:00pm 17.8 14.1 6.3 47 5.7 SE 15 24 8 13 1022.1 1022.0 0.0
09/07:30pm 18.5 13.5 8.2 51 5.3 SW 24 32 13 17 1021.7 1021.6 0.0
09/07:00pm 18.9 13.4 7.7 48 5.7 SSW 26 35 14 19 1021.2 1021.1 0.0
09/06:30pm 19.1 12.5 7.8 48 5.8 SW 32 39 17 21 1020.9 1020.8 0.0
09/06:00pm 19.1 12.5 7.8 48 5.8 SW 32 37 17 20 1020.8 1020.7 0.0
09/05:30pm 19.2 12.8 7.0 45 6.1 SW 30 37 16 20 1020.9 1020.8 0.0
09/05:00pm 19.3 12.9 7.1 45 6.2 SW 30 41 16 22 1021.1 1021.0 0.0
09/04:30pm 20.0 13.4 7.7 45 6.3 SW 32 41 17 22 1021.1 1021.0 0.0
09/04:00pm 19.7 12.9 6.8 43 6.5 SW 32 41 17 22 1021.2 1021.1 0.0
09/03:31pm 19.2 13.1 6.7 44 6.3 WSW 28 46 15 25 1021.4 1021.3 0.0
09/03:30pm 19.7 13.3 6.8 43 6.5 WSW 30 46 16 25 1021.3 1021.2 0.0
09/03:00pm 18.9 13.9 6.4 44 6.2 SW 22 35 12 19 1021.6 1021.5 0.0
09/02:30pm 19.4 14.3 6.2 42 6.5 SSW 22 35 12 19 1021.7 1021.6 0.0
09/02:00pm 18.4 13.8 5.6 43 6.2 SW 19 30 10 16 1022.2 1022.1 0.0
09/01:30pm 18.5 14.0 6.0 44 6.1 SW 19 37 10 20 1022.3 1022.2 0.0
09/01:00pm 17.7 12.8 5.3 44 6.0 S 20 28 11 15 1022.6 1022.5 0.0
09/12:30pm 17.2 12.7 4.2 42 6.1 SE 17 22 9 12 1022.7 1022.6 0.0
09/12:00pm 17.1 12.8 5.1 45 5.7 SSW 17 28 9 15 1022.8 1022.7 0.0
09/11:30am 16.6 12.7 5.3 47 5.4 SSE 15 26 8 14 1022.9 1022.8 0.0
09/11:00am 16.5 12.6 5.5 48 5.3 S 15 20 8 11 1022.9 1022.8 0.0
09/10:30am 16.4 12.0 4.8 46 5.5 SSW 17 28 9 15 1022.8 1022.7 0.0
09/10:00am 16.0 11.5 4.4 46 5.4 SSW 17 24 9 13 1022.9 1022.8 0.0
09/09:30am 15.6 10.7 4.0 46 5.3 S 19 24 10 13 1022.7 1022.6 0.0
09/09:00am 15.4 10.1 3.2 44 5.5 SSW 20 26 11 14 1022.5 1022.4 1.0
09/08:30am 15.1 10.0 3.3 45 5.3 S 19 28 10 15 1022.1 1022.0 1.0
09/08:00am 14.4 10.8 5.0 53 4.4 S 13 19 7 10 1021.9 1021.8 1.0
09/07:30am 13.4 10.4 4.3 54 4.1 S 9 13 5 7 1021.4 1021.3 1.0
09/07:00am 13.7 9.5 4.0 52 4.4 SSE 15 22 8 12 1020.8 1020.7 1.0
09/06:30am 13.2 10.7 4.6 56 3.9 SSE 7 11 4 6 1020.3 1020.2 1.0
09/06:00am 13.0 10.6 4.2 55 4.0 SSE 6 9 3 5 1019.9 1019.8 1.0
09/05:30am 13.0 10.4 4.2 55 4.0 S 7 19 4 10 1019.4 1019.3 1.0
09/05:00am 12.9 9.3 5.1 59 3.6 S 13 17 7 9 1019.2 1019.1 1.0
09/04:30am 13.4 10.6 5.3 58 3.8 S 9 15 5 8 1018.8 1018.7 1.0
09/04:00am 13.4 10.2 5.3 58 3.8 SSW 11 15 6 8 1018.3 1018.2 1.0
09/03:30am 13.2 9.3 5.4 59 3.6 S 15 19 8 10 1018.1 1018.0 1.0
09/03:00am 13.3 9.9 5.9 61 3.5 S 13 17 7 9 1017.9 1017.8 1.0
09/02:30am 13.4 10.8 6.3 62 3.4 S 9 15 5 8 1017.8 1017.7 1.0
09/02:00am 13.1 10.2 6.5 64 3.2 SSE 11 13 6 7 1017.8 1017.7 1.0
09/01:30am 13.3 9.7 6.6 64 3.2 S 15 22 8 12 1017.7 1017.6 1.0
09/01:00am 13.7 9.9 7.5 66 3.0 S 17 22 9 12 1017.6 1017.5 1.0
09/12:30am 14.0 9.8 7.5 65 3.2 S 19 30 10 16 1017.4 1017.3 1.0
09/12:00am 13.9 9.5 7.4 65 3.2 S 20 30 11 16 1017.4 1017.3 1.0
 
Date/Time
CDT
Temp
°C
App
Temp
°C
Dew
Point
°C
Rel
Hum
%
Delta-T
°C
Wind Press
QNH
hPa
Press
MSL
hPa
Rain since
9am
mm
Dir  Spd
km/h
Gust
km/h
Spd
kts
Gust
kts
08/11:30pm 14.4 9.6 7.5 63 3.4 S 22 35 12 19 1017.4 1017.3 1.0
08/11:00pm 14.5 8.5 8.5 67 3.0 SSW 30 43 16 23 1017.3 1017.2 1.0
08/10:30pm 14.8 10.1 9.4 70 2.8 SSW 24 33 13 18 1017.1 1017.0 1.0
08/10:00pm 15.2 8.4 9.3 68 3.0 SSW 35 48 19 26 1016.6 1016.5 1.0
08/09:30pm 14.8 9.4 9.6 71 2.7 SSW 28 35 15 19 1016.0 1015.9 1.0
08/09:00pm 14.7 9.8 9.9 73 2.5 SW 26 37 14 20 1015.5 1015.4 1.0
08/08:44pm 14.1 9.1 10.9 81 1.7 SW 28 35 15 19 1015.4 1015.3 1.0
08/08:30pm 13.7 6.9 10.5 81 1.7 SW 37 50 20 27 1015.4 1015.3 0.8
08/08:02pm 15.7 8.9 9.1 65 3.4 SW 35 54 19 29 1014.8 1014.7 0.0
08/08:00pm 16.5 9.9 8.7 60 4.0 SW 33 44 18 24 1014.7 1014.6 0.0
08/07:30pm 16.6 8.4 8.3 58 4.2 SW 41 52 22 28 1014.1 1014.0 0.0
08/07:00pm 17.4 8.4 8.8 57 4.4 SW 46 59 25 32 1013.4 1013.3 0.0
08/06:30pm 18.2 9.2 7.3 49 5.5 WSW 44 56 24 30 1012.9 1012.8 0.0
08/06:00pm 17.9 9.3 8.2 53 5.0 WSW 43 56 23 30 1012.4 1012.3 0.0
08/05:30pm 18.7 10.0 7.8 49 5.6 SW 43 56 23 30 1011.9 1011.8 0.0
08/05:03pm 19.9 11.3 6.6 42 6.7 WSW 41 59 22 32 1011.7 1011.6 0.0
08/05:00pm 19.5 10.5 6.3 42 6.6 WSW 43 59 23 32 1011.6 1011.5 0.0
08/04:30pm 19.8 10.6 6.5 42 6.7 SW 44 56 24 30 1011.3 1011.2 0.0
08/04:00pm 20.2 11.6 8.2 46 6.2 WSW 43 57 23 31 1011.1 1011.0 0.0
08/03:30pm 19.7 9.9 7.1 44 6.4 WSW 48 57 26 31 1010.9 1010.8 0.0
08/03:09pm 19.6 9.9 7.7 46 6.1 SW 48 67 26 36 1010.8 1010.7 0.0
08/03:00pm 20.0 11.0 9.0 49 5.8 WSW 46 59 25 32 1010.8 1010.7 0.0
08/02:30pm 19.0 9.3 7.4 47 5.9 SW 48 65 26 35 1010.7 1010.6 0.0
08/02:00pm 19.9 10.1 8.6 48 5.9 SW 50 65 27 35 1011.0 1010.9 0.0
08/01:30pm 19.6 9.4 7.0 44 6.4 SW 50 65 27 35 1010.8 1010.7 0.0
08/01:00pm 19.6 9.7 8.3 48 5.9 WSW 50 63 27 34 1010.5 1010.4 0.0
08/12:30pm 20.2 11.5 7.9 45 6.4 SW 43 59 23 32 1010.1 1010.0 0.0
08/12:17pm 19.4 10.7 8.4 49 5.7 SW 44 63 24 34 1009.8 1009.7 0.0
08/12:00pm 19.7 10.5 8.1 47 6.0 WSW 46 59 25 32 1009.6 1009.5 0.0
08/11:30am 19.0 10.2 8.1 49 5.6 WSW 44 57 24 31 1009.3 1009.2 0.0
08/11:23am 18.8 11.1 8.5 51 5.3 WSW 39 57 21 31 1009.3 1009.2 0.0
08/11:00am 19.1 9.9 7.8 48 5.8 WSW 46 57 25 31 1009.2 1009.1 0.0
08/10:30am 18.7 9.8 7.8 49 5.6 WSW 44 54 24 29 1009.0 1008.9 0.0
08/10:13am 18.6 9.5 6.8 46 5.9 WSW 44 63 24 34 1008.5 1008.5 0.0
08/10:00am 18.7 10.1 8.9 53 5.1 WSW 44 56 24 30 1008.4 1008.4 0.0
08/09:30am 17.7 9.3 9.6 59 4.3 WSW 44 59 24 32 1008.1 1008.1 0.0
08/09:00am 16.5 8.0 9.4 63 3.7 WSW 44 61 24 33 1007.9 1007.9 8.2
08/08:30am 16.9 8.5 8.8 59 4.2 WSW 43 57 23 31 1007.6 1007.6 8.2
08/08:00am 16.4 7.8 8.9 61 3.9 WSW 44 61 24 33 1007.1 1007.1 8.2
08/07:56am 16.5 8.0 8.7 60 4.0 WSW 43 61 23 33 1007.0 1007.0 8.2
08/07:30am 15.9 7.2 8.4 61 3.8 WSW 44 57 24 31 1006.7 1006.7 8.2
08/07:00am 15.4 6.9 8.4 63 3.5 WSW 43 57 23 31 1006.3 1006.3 8.2
08/06:30am 15.3 7.7 9.0 66 3.2 WSW 39 56 21 30 1005.9 1005.9 8.2
08/06:00am 15.1 8.4 9.5 69 2.9 WSW 35 48 19 26 1005.7 1005.7 8.2
08/05:30am 15.4 8.7 9.5 68 3.1 WSW 35 44 19 24 1005.4 1005.4 8.2
08/05:00am 15.7 7.3 9.8 68 3.1 WSW 44 57 24 31 1004.9 1004.9 8.2
08/04:30am 16.5 9.4 12.3 76 2.3 WSW 41 61 22 33 1004.1 1004.1 8.2
08/04:18am 17.3 10.3 13.6 79 2.1 WSW 43 61 23 33 1003.6 1003.6 8.2
08/04:00am 17.7 11.9 14.0 79 2.1 WSW 37 48 20 26 1003.4 1003.4 8.2
08/03:31am 17.9 11.9 14.4 80 2.0 WSW 39 57 21 31 1003.3 1003.3 8.2
08/03:30am 18.0 11.7 14.7 81 1.9 WSW 41 57 22 31 1003.4 1003.4 8.2
08/03:02am 18.4 13.4 16.0 86 1.4 W 37 48 20 26 1002.5 1002.5 8.2
08/03:00am 18.4 13.4 16.0 86 1.4 W 37 48 20 26 1002.7 1002.7 8.2
08/02:30am 19.3 14.3 16.0 81 2.0 W 37 56 20 30 1002.2 1002.2 8.2
08/02:27am 19.4 15.4 16.1 81 2.0 WNW 32 52 17 28 1002.1 1002.1 8.2
08/02:00am 19.9 18.0 17.7 87 1.4 NW 24 33 13 18 1001.3 1001.3 8.0
08/01:54am 20.0 17.1 18.0 88 1.2 NW 30 50 16 27 1001.3 1001.3 8.0
08/01:50am 20.0 16.7 18.0 88 1.2 NW 32 50 17 27 1001.5 1001.5 8.0
08/01:30am 20.5 16.2 18.6 89 1.2 NW 39 52 21 28 1001.8 1001.8 6.6
08/01:15am 20.7 17.1 18.5 87 1.4 NW 35 48 19 26 1002.0 1002.0 4.0
08/01:00am 21.2 17.9 18.4 84 1.7 NW 33 48 18 26 1001.9 1001.9 3.0
08/12:35am 21.7 18.1 17.7 78 2.5 WNW 33 52 18 28 1001.8 1001.8 1.8
08/12:30am 22.4 19.3 17.5 74 3.0 W 30 46 16 25 1001.6 1001.6 1.2
08/12:27am 22.5 20.2 17.6 74 3.0 W 26 39 14 21 1001.3 1001.3 1.2
08/12:00am 22.7 23.8 18.0 75 2.9 NW 9 15 5 8 999.3 999.3 0.8
 
Date/Time
CDT
Temp
°C
App
Temp
°C
Dew
Point
°C
Rel
Hum
%
Delta-T
°C
Wind Press
QNH
hPa
Press
MSL
hPa
Rain since
9am
mm
Dir  Spd
km/h
Gust
km/h
Spd
kts
Gust
kts
07/11:30pm 22.8 23.3 17.5 72 3.3 E 11 15 6 8 998.2 998.2 0.8
07/11:00pm 22.4 22.8 17.3 73 3.1 NE 11 15 6 8 999.6 999.6 0.6
07/10:59pm 22.4 22.9 17.5 74 3.0 NE 11 15 6 8 999.7 999.7 0.6
07/10:34pm 26.2 22.4 14.6 48 6.9 NW 28 52 15 28 1001.7 1001.7 0.0
07/10:30pm 26.9 23.5 13.6 44 7.9 NNW 24 35 13 19 1001.4 1001.4 0.0
07/10:00pm 26.7 24.1 13.8 45 7.6 NE 20 26 11 14 999.6 999.6 0.0
07/09:30pm 28.6 25.3 10.8 33 10.2 NNE 19 22 10 12 1000.5 1000.5 0.0
07/09:00pm 28.7 25.7 10.8 33 10.2 NNE 17 20 9 11 1001.0 1001.0 0.0
07/08:30pm 30.4 26.5 10.9 30 11.3 N 22 30 12 16 1001.3 1001.3 0.0
07/08:00pm 30.9 26.8 11.3 30 11.4 N 24 33 13 18 1001.8 1001.8 0.0
07/07:30pm 30.1 29.6 12.5 34 10.4 ENE 7 11 4 6 1002.1 1002.1 0.0
07/07:00pm 29.7 30.4 13.5 37 9.7 E 2 7 1 4 1002.7 1002.7 0.0
07/06:30pm 29.6 29.3 13.4 37 9.7 ESE 7 11 4 6 1003.0 1003.0 0.0
07/06:00pm 29.1 28.4 13.3 37 9.4 E 9 15 5 8 1003.5 1003.5 0.0
07/05:30pm 29.8 29.6 13.1 36 9.9 E 6 11 3 6 1004.4 1004.4 0.0
07/05:00pm 28.6 28.3 13.3 39 9.1 WNW 7 13 4 7 1005.2 1005.2 0.0
07/04:30pm 27.7 27.4 14.3 43 8.1 WSW 9 13 5 7 1006.1 1006.1 0.0
07/04:00pm 26.9 24.4 14.0 45 7.7 W 20 26 11 14 1007.1 1007.1 0.0
07/03:30pm 28.0 25.2 13.1 39 8.8 W 20 30 11 16 1007.5 1007.5 0.0
07/03:11pm 27.6 22.5 13.2 41 8.5 WNW 32 50 17 27 1007.9 1007.9 0.0
07/03:00pm 28.7 23.2 12.6 37 9.5 W 33 39 18 21 1007.9 1007.9 0.0
07/02:30pm 31.0 25.4 11.4 30 11.4 WNW 32 43 17 23 1007.9 1007.9 0.0
07/02:22pm 32.0 26.5 12.3 30 11.7 NW 33 48 18 26 1008.1 1008.1 0.0
07/02:07pm 32.0 25.4 11.2 28 12.1 WNW 37 48 20 26 1008.3 1008.3 0.0
07/02:00pm 32.1 26.6 12.3 29 11.7 WNW 33 43 18 23 1008.3 1008.3 0.0
07/01:30pm 29.3 25.0 10.9 32 10.5 W 24 35 13 19 1009.2 1009.1 0.0
07/01:00pm 31.7 27.9 9.8 26 12.4 NNW 20 35 11 19 1009.5 1009.4 0.0
07/12:30pm 29.9 25.5 8.9 27 11.7 NNW 22 35 12 19 1010.4 1010.3 0.0
07/12:00pm 28.5 24.0 8.7 29 10.9 N 22 33 12 18 1011.2 1011.1 0.0
07/11:30am 28.7 24.9 8.9 29 10.9 NE 19 30 10 16 1011.8 1011.7 0.0
07/11:00am 25.9 21.4 8.4 33 9.4 NNE 22 35 12 19 1012.5 1012.4 0.0
07/10:30am 24.6 20.2 9.0 37 8.4 NE 22 30 12 16 1013.1 1013.0 0.0
07/10:00am 23.4 18.1 8.3 38 8.0 NE 26 35 14 19 1013.5 1013.4 0.0
07/09:30am 22.1 16.7 8.2 41 7.3 NE 26 33 14 18 1013.9 1013.8 0.0
07/09:00am 21.0 15.3 8.3 44 6.6 NE 28 37 15 20 1014.3 1014.2 0.0
07/08:30am 19.6 13.9 8.3 48 5.9 NE 28 33 15 18 1014.2 1014.1 0.0
07/08:00am 18.1 14.8 9.5 57 4.5 NE 17 22 9 12 1014.3 1014.2 0.0
07/07:30am 15.3 12.8 9.7 69 2.9 NNE 13 15 7 8 1014.3 1014.2 0.0
07/07:00am 13.6 11.8 9.6 77 2.0 NNE 9 11 5 6 1014.4 1014.3 0.0
07/06:30am 12.8 10.1 8.9 77 2.0 NE 13 15 7 8 1014.0 1013.9 0.0
07/06:00am 10.9 10.4 7.8 81 1.5 CALM 0 0 0 0 1013.8 1013.7 0.0
07/05:30am 11.7 11.0 8.4 80 1.6 E 2 6 1 3 1013.6 1013.5 0.0
07/05:00am 11.6 10.1 8.3 80 1.6 NNE 6 6 3 3 1013.6 1013.5 0.0
07/04:30am 12.3 9.9 8.6 78 1.8 NE 11 13 6 7 1013.4 1013.3 0.0
07/04:00am 12.6 11.1 8.3 75 2.1 ENE 6 7 3 4 1013.3 1013.2 0.0
07/03:30am 13.2 11.8 8.7 74 2.3 ESE 6 7 3 4 1013.5 1013.4 0.0
07/03:00am 12.6 11.1 8.5 76 2.0 E 6 7 3 4 1013.8 1013.7 0.0
07/02:30am 12.1 10.4 8.4 78 1.8 NNE 7 9 4 5 1013.9 1013.8 0.0
07/02:00am 13.9 12.8 8.5 70 2.7 E 4 6 2 3 1014.4 1014.3 0.0
07/01:30am 13.2 11.7 8.5 73 2.3 E 6 7 3 4 1014.8 1014.7 0.0
07/01:00am 14.4 11.9 8.4 67 3.0 NE 11 15 6 8 1015.2 1015.1 0.0
07/12:30am 14.8 12.8 8.5 66 3.2 ENE 9 11 5 6 1015.4 1015.3 0.0

Other Formats:

Comma delimited format used in spreadsheet applications
http://www.bom.gov.au/fwo/IDS60801/IDS60801.95676.axf

JavaScript Object Notation format (JSON) in row-major order
http://www.bom.gov.au/fwo/IDS60801/IDS60801.95676.json